createdAt,value
2018-06-01T00:02:01.545Z,23.27
2018-06-01T00:04:27.512Z,23.26
2018-06-01T00:06:53.320Z,23.25
2018-06-01T00:09:19.121Z,23.27
2018-06-01T00:11:44.929Z,23.26
2018-06-01T00:14:10.733Z,23.27
2018-06-01T00:16:36.534Z,23.26
2018-06-01T00:19:02.342Z,23.27
2018-06-01T00:21:28.148Z,23.25
2018-06-01T00:23:53.952Z,23.25
2018-06-01T00:26:19.757Z,23.26
2018-06-01T00:28:45.608Z,23.28
2018-06-01T00:31:11.408Z,23.27
2018-06-01T00:33:37.212Z,23.27
2018-06-01T00:36:03.022Z,23.28
2018-06-01T00:38:28.825Z,23.29
2018-06-01T00:40:54.705Z,23.29
2018-06-01T00:43:20.518Z,23.29
2018-06-01T00:45:46.328Z,23.29
2018-06-01T00:48:12.164Z,23.30
2018-06-01T00:50:38.618Z,23.29
2018-06-01T00:53:04.469Z,23.28
2018-06-01T00:55:30.316Z,23.26
2018-06-01T00:57:56.160Z,23.26
2018-06-01T01:00:21.972Z,23.25
2018-06-01T01:02:47.869Z,23.27
2018-06-01T01:05:13.689Z,23.25
2018-06-01T01:07:39.647Z,23.27
2018-06-01T01:10:05.453Z,23.26
2018-06-01T01:12:31.260Z,23.26
2018-06-01T01:14:57.064Z,23.28
2018-06-01T01:17:22.872Z,23.27
2018-06-01T01:19:49.644Z,23.27
2018-06-01T01:22:15.460Z,23.26
2018-06-01T01:24:41.304Z,23.24
2018-06-01T01:27:07.112Z,23.24
2018-06-01T01:29:32.953Z,23.24
2018-06-01T01:31:58.795Z,23.21
2018-06-01T01:34:24.632Z,23.22
2018-06-01T01:36:51.237Z,23.23
2018-06-01T01:39:17.081Z,23.23
2018-06-01T01:41:42.879Z,23.24
2018-06-01T01:44:08.684Z,23.26
2018-06-01T01:46:34.493Z,23.25
2018-06-01T01:49:00.292Z,23.25
2018-06-01T01:51:27.079Z,23.25
2018-06-01T01:53:53.046Z,23.22
2018-06-01T01:56:19.812Z,23.21
2018-06-01T01:58:45.613Z,23.19
2018-06-01T02:01:11.420Z,23.25
2018-06-01T02:03:38.060Z,23.25
2018-06-01T02:06:04.860Z,23.23
2018-06-01T02:08:31.653Z,23.22
2018-06-01T02:10:57.548Z,23.20
2018-06-01T02:13:23.348Z,23.20
2018-06-01T02:15:49.953Z,23.20
2018-06-01T02:18:15.796Z,23.21
2018-06-01T02:20:41.608Z,23.19
2018-06-01T02:23:07.432Z,23.18
2018-06-01T02:25:34.104Z,23.21
2018-06-01T02:27:59.905Z,23.20
2018-06-01T02:30:25.712Z,23.22
2018-06-01T02:32:51.584Z,23.23
2018-06-01T02:35:17.384Z,23.21
2018-06-01T02:37:43.188Z,23.20
2018-06-01T02:40:09.035Z,23.19
2018-06-01T02:42:34.860Z,23.22
2018-06-01T02:45:00.697Z,23.23
2018-06-01T02:47:26.540Z,23.22
2018-06-01T02:49:52.352Z,23.22
2018-06-01T02:52:19.116Z,23.20
2018-06-01T02:54:45.923Z,23.16
2018-06-01T02:57:12.713Z,23.20
2018-06-01T02:59:39.428Z,23.18
2018-06-01T03:02:05.236Z,23.19
2018-06-01T03:04:31.036Z,23.19
2018-06-01T03:07:16.876Z,23.17
2018-06-01T03:09:43.604Z,22.97
2018-06-01T03:12:09.454Z,23.05
2018-06-01T03:14:35.253Z,23.15
2018-06-01T03:17:01.095Z,23.17
2018-06-01T03:19:27.859Z,23.21
2018-06-01T03:21:53.656Z,23.19
2018-06-01T03:24:20.505Z,23.18
2018-06-01T03:26:47.138Z,23.17
2018-06-01T03:29:12.997Z,23.18
2018-06-01T03:31:38.803Z,23.18
2018-06-01T03:34:04.613Z,23.18
2018-06-01T03:36:30.416Z,23.20
2018-06-01T03:38:56.212Z,23.20
2018-06-01T03:41:22.013Z,23.17
2018-06-01T03:43:47.814Z,23.19
2018-06-01T03:46:13.671Z,23.18
2018-06-01T03:48:39.473Z,23.18
2018-06-01T03:51:05.299Z,23.20
2018-06-01T03:53:31.097Z,23.18
2018-06-01T03:55:56.935Z,23.18
2018-06-01T03:58:22.736Z,23.19
2018-06-01T04:00:49.495Z,23.19
2018-06-01T04:03:15.304Z,23.18
2018-06-01T04:05:43.333Z,23.16
2018-06-01T04:08:09.133Z,23.19
2018-06-01T04:10:34.927Z,23.18
2018-06-01T04:13:00.727Z,23.15
2018-06-01T04:15:26.532Z,23.15
2018-06-01T04:17:52.372Z,23.17
2018-06-01T04:20:18.184Z,23.16
2018-06-01T04:22:44.918Z,23.19
2018-06-01T04:25:11.631Z,23.17
2018-06-01T04:27:37.447Z,23.18
2018-06-01T04:30:04.220Z,23.18
2018-06-01T04:32:30.219Z,23.20
2018-06-01T04:34:56.829Z,23.17
2018-06-01T04:37:22.697Z,23.19
2018-06-01T04:39:49.329Z,23.19
2018-06-01T04:42:15.135Z,23.15
2018-06-01T04:44:40.936Z,23.17
2018-06-01T04:47:07.705Z,23.18
2018-06-01T04:49:33.514Z,23.17
2018-06-01T04:51:59.320Z,23.15
2018-06-01T04:54:26.069Z,23.20
2018-06-01T04:56:52.869Z,23.18
2018-06-01T04:59:18.712Z,23.18
2018-06-01T05:01:44.563Z,23.18
2018-06-01T05:04:11.281Z,23.19
2018-06-01T05:06:37.081Z,23.19
2018-06-01T05:09:03.795Z,23.19
2018-06-01T05:11:30.528Z,23.19
2018-06-01T05:13:56.371Z,23.19
2018-06-01T05:16:22.957Z,23.21
2018-06-01T05:18:49.709Z,23.23
2018-06-01T05:21:16.496Z,23.22
2018-06-01T05:23:42.353Z,23.20
2018-06-01T05:26:08.169Z,23.20
2018-06-01T05:28:33.977Z,23.16
2018-06-01T05:30:59.780Z,23.17
2018-06-01T05:33:26.562Z,23.17
2018-06-01T05:35:52.356Z,23.14
2018-06-01T05:38:19.034Z,23.18
2018-06-01T05:40:45.773Z,23.15
2018-06-01T05:43:11.568Z,23.14
2018-06-01T05:45:37.367Z,23.16
2018-06-01T05:48:04.123Z,23.14
2018-06-01T05:50:30.900Z,23.16
2018-06-01T05:52:56.780Z,23.18
2018-06-01T05:55:24.095Z,23.18
2018-06-01T05:57:49.941Z,23.17
2018-06-01T06:00:15.737Z,23.16
2018-06-01T06:02:41.569Z,23.14
2018-06-01T06:05:08.352Z,23.15
2018-06-01T06:07:35.153Z,23.16
2018-06-01T06:10:01.942Z,23.19
2018-06-01T06:12:28.772Z,23.18
2018-06-01T06:14:54.625Z,23.14
2018-06-01T06:17:21.257Z,23.11
2018-06-01T06:19:48.045Z,23.18
2018-06-01T06:22:14.812Z,23.15
2018-06-01T06:24:41.420Z,23.13
2018-06-01T06:27:07.216Z,23.15
2018-06-01T06:29:33.036Z,23.15
2018-06-01T06:31:59.820Z,23.12
2018-06-01T06:34:25.656Z,23.16
2018-06-01T06:36:52.394Z,23.15
2018-06-01T06:39:18.201Z,23.11
2018-06-01T06:41:44.009Z,23.18
2018-06-01T06:44:09.812Z,23.15
2018-06-01T06:46:35.658Z,23.17
2018-06-01T06:49:01.465Z,23.15
2018-06-01T06:51:27.269Z,23.16
2018-06-01T06:53:53.069Z,23.17
2018-06-01T06:56:19.807Z,23.18
2018-06-01T06:58:45.605Z,23.15
2018-06-01T07:01:12.272Z,23.13
2018-06-01T07:03:38.081Z,23.14
2018-06-01T07:06:04.706Z,23.11
2018-06-01T07:08:30.512Z,23.12
2018-06-01T07:10:56.321Z,23.13
2018-06-01T07:13:22.121Z,23.13
2018-06-01T07:15:47.928Z,23.11
2018-06-01T07:18:13.765Z,23.13
2018-06-01T07:20:40.225Z,23.14
2018-06-01T07:23:06.925Z,23.11
2018-06-01T07:25:32.783Z,23.09
2018-06-01T07:27:58.585Z,23.08
2018-06-01T07:30:25.332Z,23.08
2018-06-01T07:32:51.137Z,23.10
2018-06-01T07:35:16.983Z,23.11
2018-06-01T07:37:42.843Z,23.11
2018-06-01T07:40:08.655Z,23.13
2018-06-01T07:42:34.483Z,23.12
2018-06-01T07:45:00.397Z,23.11
2018-06-01T07:47:26.200Z,23.12
2018-06-01T07:49:53.016Z,23.10
2018-06-01T07:52:18.816Z,23.08
2018-06-01T07:54:45.545Z,23.09
2018-06-01T07:57:11.343Z,23.09
2018-06-01T07:59:38.035Z,23.10
2018-06-01T08:02:04.875Z,23.07
2018-06-01T08:04:30.817Z,23.09
2018-06-01T08:06:56.677Z,23.07
2018-06-01T08:09:23.286Z,23.06
2018-06-01T08:11:49.365Z,23.08
2018-06-01T08:14:16.147Z,23.08
2018-06-01T08:16:47.701Z,23.12
2018-06-01T08:19:14.320Z,23.08
2018-06-01T08:21:41.134Z,23.10
2018-06-01T08:24:07.926Z,23.11
2018-06-01T08:26:34.715Z,23.15
2018-06-01T08:29:00.548Z,23.19
2018-06-01T08:31:26.348Z,23.19
2018-06-01T08:33:52.225Z,23.16
2018-06-01T08:36:18.024Z,23.17
2018-06-01T08:38:44.643Z,23.15
2018-06-01T08:41:10.450Z,23.14
2018-06-01T08:43:37.081Z,23.15
2018-06-01T08:46:03.889Z,23.13
2018-06-01T08:48:29.840Z,23.14
2018-06-01T08:50:56.461Z,23.13
2018-06-01T08:53:22.303Z,23.13
2018-06-01T08:55:48.963Z,23.11
2018-06-01T08:58:14.808Z,23.12
2018-06-01T09:00:41.414Z,23.15
2018-06-01T09:03:07.325Z,23.15
2018-06-01T09:05:33.942Z,23.13
2018-06-01T09:07:59.780Z,23.16
2018-06-01T09:10:26.470Z,23.15
2018-06-01T09:12:52.313Z,23.14
2018-06-01T09:15:18.956Z,23.14
2018-06-01T09:17:45.756Z,23.14
2018-06-01T09:20:12.508Z,23.08
2018-06-01T09:22:38.303Z,23.09
2018-06-01T09:25:05.052Z,23.11
2018-06-01T09:27:30.848Z,23.11
2018-06-01T09:29:56.688Z,23.11
2018-06-01T09:32:22.484Z,23.09
2018-06-01T09:34:49.435Z,23.07
2018-06-01T09:37:15.238Z,23.11
2018-06-01T09:39:41.905Z,23.10
2018-06-01T09:42:07.704Z,23.12
2018-06-01T09:44:34.522Z,23.10
2018-06-01T09:47:00.324Z,23.08
2018-06-01T09:49:27.129Z,23.08
2018-06-01T09:51:53.996Z,23.07
2018-06-01T09:54:20.695Z,23.07
2018-06-01T09:56:47.312Z,23.04
2018-06-01T09:59:13.117Z,23.08
2018-06-01T10:01:39.812Z,23.09
2018-06-01T10:04:06.567Z,23.12
2018-06-01T10:06:33.408Z,23.10
2018-06-01T10:08:59.203Z,23.13
2018-06-01T10:11:26.560Z,23.11
2018-06-01T10:13:53.215Z,23.10
2018-06-01T10:16:19.992Z,23.09
2018-06-01T10:18:45.832Z,23.10
2018-06-01T10:21:11.639Z,23.09
2018-06-01T10:23:37.440Z,23.10
2018-06-01T10:26:03.231Z,23.09
2018-06-01T10:28:29.976Z,23.08
2018-06-01T10:30:55.771Z,23.07
2018-06-01T10:33:22.588Z,23.04
2018-06-01T10:35:48.388Z,23.06
2018-06-01T10:38:14.184Z,23.12
2018-06-01T10:40:40.040Z,23.10
2018-06-01T10:43:05.844Z,23.12
2018-06-01T10:45:31.644Z,23.12
2018-06-01T10:47:57.489Z,23.09
2018-06-01T10:50:23.309Z,23.12
2018-06-01T10:52:49.109Z,23.11
2018-06-01T10:55:15.907Z,23.14
2018-06-01T10:57:42.610Z,23.13
2018-06-01T11:00:08.409Z,23.16
2018-06-01T11:02:34.212Z,23.22
2018-06-01T11:05:00.935Z,23.23
2018-06-01T11:07:27.781Z,23.21
2018-06-01T11:09:53.583Z,23.18
2018-06-01T11:12:19.380Z,23.23
2018-06-01T11:14:46.237Z,23.22
2018-06-01T11:17:12.153Z,23.19
2018-06-01T11:19:37.964Z,23.17
2018-06-01T11:22:03.793Z,23.16
2018-06-01T11:24:29.596Z,23.09
2018-06-01T11:26:55.441Z,23.19
2018-06-01T11:29:21.244Z,23.08
2018-06-01T11:31:47.945Z,23.19
2018-06-01T11:34:13.760Z,23.17
2018-06-01T11:36:39.562Z,23.14
2018-06-01T11:39:05.384Z,23.17
2018-06-01T11:41:31.184Z,23.20
2018-06-01T11:43:56.993Z,23.23
2018-06-01T11:46:22.844Z,23.21
2018-06-01T11:48:48.640Z,23.20
2018-06-01T11:51:14.455Z,23.13
2018-06-01T11:53:40.265Z,23.00
2018-06-01T11:56:06.969Z,23.24
2018-06-01T11:58:32.811Z,23.19
2018-06-01T12:00:59.439Z,23.25
2018-06-01T12:03:25.280Z,23.28
2018-06-01T12:05:51.076Z,23.26
2018-06-01T12:08:17.928Z,23.22
2018-06-01T12:10:44.629Z,23.20
2018-06-01T12:13:11.508Z,23.23
2018-06-01T12:15:37.311Z,23.22
2018-06-01T12:18:05.010Z,23.26
2018-06-01T12:20:31.794Z,23.23
2018-06-01T12:22:57.596Z,23.22
2018-06-01T12:25:24.439Z,23.20
2018-06-01T12:27:50.245Z,23.23
2018-06-01T12:30:16.088Z,23.20
2018-06-01T12:32:42.908Z,23.20
2018-06-01T12:35:08.780Z,23.21
2018-06-01T12:37:35.545Z,23.23
2018-06-01T12:40:01.431Z,23.20
2018-06-01T12:42:28.229Z,23.22
2018-06-01T12:44:54.064Z,23.21
2018-06-01T12:47:20.729Z,23.19
2018-06-01T12:49:46.650Z,23.18
2018-06-01T12:52:13.441Z,23.13
2018-06-01T12:54:39.282Z,23.13
2018-06-01T12:57:05.095Z,23.14
2018-06-01T12:59:30.949Z,23.15
2018-06-01T13:01:57.532Z,23.18
2018-06-01T13:04:23.340Z,23.17
2018-06-01T13:06:50.063Z,23.15
2018-06-01T13:09:15.874Z,23.16
2018-06-01T13:11:42.620Z,23.17
2018-06-01T13:14:08.432Z,23.18
2018-06-01T13:16:35.057Z,23.21
2018-06-01T13:19:01.828Z,23.18
2018-06-01T13:21:28.561Z,23.15
2018-06-01T13:23:55.397Z,23.15
2018-06-01T13:26:22.020Z,23.16
2018-06-01T13:28:48.820Z,23.14
2018-06-01T13:31:15.631Z,23.13
2018-06-01T13:33:42.328Z,23.11
2018-06-01T13:36:08.948Z,23.12
2018-06-01T13:38:35.764Z,23.12
2018-06-01T13:41:01.572Z,23.12
2018-06-01T13:43:28.336Z,23.12
2018-06-01T13:45:54.132Z,23.13
2018-06-01T13:48:20.896Z,23.13
2018-06-01T13:50:47.636Z,23.14
2018-06-01T13:53:14.442Z,23.12
2018-06-01T13:55:43.280Z,23.13
2018-06-01T13:58:10.010Z,23.09
2018-06-01T14:00:35.826Z,23.10
2018-06-01T14:03:02.508Z,23.08
2018-06-01T14:05:29.360Z,23.09
2018-06-01T14:07:56.324Z,23.10
2018-06-01T14:10:22.156Z,23.09
2018-06-01T14:12:48.514Z,23.08
2018-06-01T14:15:15.248Z,23.09
2018-06-01T14:17:41.991Z,23.13
2018-06-01T14:20:07.790Z,23.13
2018-06-01T14:22:33.588Z,23.13
2018-06-01T14:25:00.316Z,23.13
2018-06-01T14:27:26.125Z,23.11
2018-06-01T14:29:51.956Z,23.11
2018-06-01T14:32:18.816Z,23.15
2018-06-01T14:34:44.655Z,23.13
2018-06-01T14:37:10.501Z,23.13
2018-06-01T14:39:37.236Z,23.14
2018-06-01T14:42:04.060Z,23.13
2018-06-01T14:44:30.577Z,23.12
2018-06-01T14:46:57.213Z,23.13
2018-06-01T14:49:23.792Z,23.11
2018-06-01T14:51:50.550Z,23.11
2018-06-01T14:54:16.440Z,23.09
2018-06-01T14:56:42.244Z,23.08
2018-06-01T14:59:09.040Z,23.10
2018-06-01T15:01:35.739Z,23.12
2018-06-01T15:04:01.594Z,23.09
2018-06-01T15:06:27.396Z,23.11
2018-06-01T15:08:53.201Z,23.10
2018-06-01T15:11:19.801Z,23.17
2018-06-01T15:13:45.756Z,23.15
2018-06-01T15:16:12.520Z,23.13
2018-06-01T15:18:38.338Z,23.07
2018-06-01T15:21:04.140Z,23.20
2018-06-01T15:23:29.953Z,23.17
2018-06-01T15:25:55.760Z,23.20
2018-06-01T15:28:21.558Z,23.21
2018-06-01T15:30:47.357Z,23.14
2018-06-01T15:33:13.241Z,23.15
2018-06-01T15:35:40.367Z,23.14
2018-06-01T15:38:06.170Z,23.16
2018-06-01T15:40:31.981Z,23.12
2018-06-01T15:42:58.768Z,23.11
2018-06-01T15:45:24.616Z,23.10
2018-06-01T15:47:50.429Z,23.12
2018-06-01T15:50:16.227Z,23.14
2018-06-01T15:52:42.029Z,23.17
2018-06-01T15:55:07.828Z,23.20
2018-06-01T15:57:33.631Z,23.17
2018-06-01T15:59:59.436Z,23.15
2018-06-01T16:02:25.326Z,23.18
2018-06-01T16:04:51.170Z,23.18
2018-06-01T16:07:16.979Z,23.16
2018-06-01T16:09:42.794Z,23.13
2018-06-01T16:12:08.608Z,23.12
2018-06-01T16:14:34.404Z,23.12
2018-06-01T16:17:00.205Z,23.12
2018-06-01T16:19:26.004Z,23.12
2018-06-01T16:21:51.815Z,23.15
2018-06-01T16:24:17.618Z,23.15
2018-06-01T16:26:43.492Z,23.13
2018-06-01T16:29:10.197Z,23.15
2018-06-01T16:31:36.002Z,23.14
2018-06-01T16:34:02.808Z,23.14
2018-06-01T16:36:28.672Z,23.13
2018-06-01T16:38:55.426Z,23.14
2018-06-01T16:41:21.232Z,23.17
2018-06-01T16:43:48.056Z,23.18
2018-06-01T16:46:13.902Z,23.16
2018-06-01T16:48:40.769Z,23.13
2018-06-01T16:51:06.581Z,23.13
2018-06-01T16:53:33.379Z,23.15
2018-06-01T16:55:59.195Z,23.13
2018-06-01T16:58:25.002Z,23.14
2018-06-01T17:00:51.762Z,23.14
2018-06-01T17:03:17.564Z,23.13
2018-06-01T17:05:43.366Z,23.14
2018-06-01T17:08:09.171Z,23.14
2018-06-01T17:10:35.977Z,23.14
2018-06-01T17:13:01.813Z,23.15
2018-06-01T17:15:27.621Z,23.14
2018-06-01T17:17:53.526Z,23.15
2018-06-01T17:20:20.200Z,23.16
2018-06-01T17:22:47.026Z,23.16
2018-06-01T17:25:12.931Z,23.15
2018-06-01T17:27:38.770Z,23.16
2018-06-01T17:30:04.671Z,23.15
2018-06-01T17:32:30.473Z,23.14
2018-06-01T17:34:56.277Z,23.15
2018-06-01T17:37:22.130Z,23.16
2018-06-01T17:39:48.852Z,23.16
2018-06-01T17:42:15.564Z,23.15
2018-06-01T17:44:41.379Z,23.15
2018-06-01T17:47:07.322Z,23.12
2018-06-01T17:49:33.130Z,23.12
2018-06-01T17:51:59.901Z,23.13
2018-06-01T17:54:25.712Z,23.13
2018-06-01T17:56:51.521Z,23.14
2018-06-01T17:59:18.148Z,23.13
2018-06-01T18:01:43.968Z,23.13
2018-06-01T18:04:10.689Z,23.12
2018-06-01T18:06:36.492Z,23.12
2018-06-01T18:09:02.330Z,23.12
2018-06-01T18:11:28.174Z,23.14
2018-06-01T18:13:54.880Z,23.15
2018-06-01T18:16:20.677Z,23.15
2018-06-01T18:18:47.390Z,23.18
2018-06-01T18:21:13.203Z,23.21
2018-06-01T18:23:39.057Z,23.29
2018-06-01T18:26:04.860Z,23.38
2018-06-01T18:28:31.554Z,23.49
2018-06-01T18:30:57.353Z,23.51
2018-06-01T18:33:24.118Z,23.54
2018-06-01T18:35:49.999Z,23.56
2018-06-01T18:38:15.800Z,23.60
2018-06-01T18:40:42.465Z,23.61
2018-06-01T18:43:09.209Z,23.59
2018-06-01T18:45:35.021Z,23.58
2018-06-01T18:48:00.833Z,23.57
2018-06-01T18:50:27.579Z,23.59
2018-06-01T18:52:53.384Z,23.58
2018-06-01T18:55:19.291Z,23.54
2018-06-01T18:57:45.110Z,23.59
2018-06-01T19:00:10.917Z,23.58
2018-06-01T19:02:37.745Z,23.58
2018-06-01T19:05:04.513Z,23.58
2018-06-01T19:07:31.251Z,23.58
2018-06-01T19:09:57.069Z,23.57
2018-06-01T19:12:22.881Z,23.57
2018-06-01T19:14:48.693Z,23.57
2018-06-01T19:17:14.509Z,23.56
2018-06-01T19:19:40.340Z,23.55
2018-06-01T19:22:06.310Z,23.55
2018-06-01T19:24:32.335Z,23.57
2018-06-01T19:26:58.153Z,23.57
2018-06-01T19:29:24.830Z,23.56
2018-06-01T19:31:50.685Z,23.57
2018-06-01T19:34:16.501Z,23.55
2018-06-01T19:36:42.437Z,23.55
2018-06-01T19:39:08.253Z,23.55
2018-06-01T19:41:34.301Z,23.55
2018-06-01T19:44:00.189Z,23.55
2018-06-01T19:46:26.037Z,23.55
2018-06-01T19:48:52.172Z,23.56
2018-06-01T19:51:17.982Z,23.55
2018-06-01T19:53:43.912Z,23.52
2018-06-01T19:56:09.726Z,23.54
2018-06-01T19:58:35.633Z,23.55
2018-06-01T20:01:02.006Z,23.55
2018-06-01T20:03:27.908Z,23.54
2018-06-01T20:05:53.745Z,23.56
2018-06-01T20:08:20.571Z,23.53
2018-06-01T20:10:46.802Z,23.52
2018-06-01T20:13:12.679Z,23.51
2018-06-01T20:15:38.646Z,23.50
2018-06-01T20:18:04.469Z,23.51
2018-06-01T20:20:30.286Z,23.52
2018-06-01T20:22:56.085Z,23.53
2018-06-01T20:25:22.349Z,23.53
2018-06-01T20:27:50.079Z,23.52
2018-06-01T20:30:23.680Z,23.51
2018-06-01T20:32:50.929Z,23.47
2018-06-01T20:35:17.503Z,23.48
2018-06-01T20:37:43.729Z,23.49
2018-06-01T20:40:15.213Z,23.51
2018-06-01T20:42:41.821Z,23.48
2018-06-01T20:45:08.372Z,23.49
2018-06-01T20:47:34.946Z,23.49
2018-06-01T20:50:00.800Z,23.50
2018-06-01T20:52:26.613Z,23.49
2018-06-01T20:54:53.363Z,23.48
2018-06-01T20:57:20.437Z,23.49
2018-06-01T20:59:47.160Z,23.48
2018-06-01T21:02:12.978Z,23.47
2018-06-01T21:04:38.785Z,23.48
2018-06-01T21:07:04.628Z,23.49
2018-06-01T21:09:30.548Z,23.49
2018-06-01T21:11:57.253Z,23.49
2018-06-01T21:14:23.992Z,23.48
2018-06-01T21:16:49.833Z,23.46
2018-06-01T21:19:15.650Z,23.47
2018-06-01T21:21:41.496Z,23.46
2018-06-01T21:24:07.305Z,23.45
2018-06-01T21:26:33.106Z,23.46
2018-06-01T21:28:59.084Z,23.45
2018-06-01T21:31:24.921Z,23.45
2018-06-01T21:33:51.644Z,23.45
2018-06-01T21:36:17.528Z,23.44
2018-06-01T21:38:43.333Z,23.45
2018-06-01T21:41:09.945Z,23.46
2018-06-01T21:43:35.750Z,23.46
2018-06-01T21:46:01.558Z,23.46
2018-06-01T21:48:27.365Z,23.46
2018-06-01T21:50:54.133Z,23.47
2018-06-01T21:53:19.976Z,23.44
2018-06-01T21:55:45.783Z,23.43
2018-06-01T21:58:12.549Z,23.43
2018-06-01T22:00:38.356Z,23.41
2018-06-01T22:03:04.208Z,23.42
2018-06-01T22:05:30.009Z,23.41
2018-06-01T22:07:55.816Z,23.42
2018-06-01T22:10:21.664Z,23.42
2018-06-01T22:12:54.447Z,23.42
2018-06-01T22:15:21.214Z,23.36
2018-06-01T22:17:47.025Z,23.40
2018-06-01T22:20:13.865Z,23.43
2018-06-01T22:22:39.675Z,23.41
2018-06-01T22:25:05.480Z,23.43
2018-06-01T22:27:32.257Z,23.43
2018-06-01T22:29:58.073Z,23.41
2018-06-01T22:32:23.883Z,23.41
2018-06-01T22:34:50.664Z,23.41
2018-06-01T22:37:16.542Z,23.42
2018-06-01T22:39:42.341Z,23.42
2018-06-01T22:42:08.178Z,23.42
2018-06-01T22:44:33.981Z,23.42
2018-06-01T22:47:00.584Z,23.42
2018-06-01T22:49:27.408Z,23.41
2018-06-01T22:51:54.192Z,23.41
2018-06-01T22:54:20.968Z,23.41
2018-06-01T22:56:46.766Z,23.41
2018-06-01T22:59:12.560Z,23.44
2018-06-01T23:01:38.436Z,23.44
2018-06-01T23:04:04.238Z,23.44
2018-06-01T23:06:30.065Z,23.45
2018-06-01T23:08:56.920Z,23.44
2018-06-01T23:11:22.723Z,23.42
2018-06-01T23:13:48.532Z,23.43
2018-06-01T23:16:14.340Z,23.43
2018-06-01T23:18:40.146Z,23.42
2018-06-01T23:21:06.008Z,23.41
2018-06-01T23:23:32.812Z,23.42
2018-06-01T23:25:58.605Z,23.40
2018-06-01T23:28:24.408Z,23.38
2018-06-01T23:30:51.085Z,23.38
2018-06-01T23:33:16.885Z,23.39
2018-06-01T23:35:44.673Z,23.39
2018-06-01T23:38:10.516Z,23.35
2018-06-01T23:40:36.315Z,23.37
2018-06-01T23:43:02.121Z,23.38
2018-06-01T23:45:27.928Z,23.39
2018-06-01T23:47:53.732Z,23.38
2018-06-01T23:50:19.532Z,23.39
2018-06-01T23:52:45.360Z,23.36
2018-06-01T23:55:11.169Z,23.39
2018-06-01T23:57:36.976Z,23.38
